Latest Weather Observations for Georgetown Airport

IDQ60801

Issued at 7:32 pm EST Thursday 21 February 2019 (issued every 10 minutes, with the page automatically refreshed every 10 minutes)

About weather observations | Map of weather stations | Latest weather observations for QLD | Other Formats
Station Details ID: 030124 Name: GEORGETOWN AIRPORT Lat: -18.30 Lon: 143.53 Height: 301.77 m
Data from the previous 72 hours. | See also: Recent months at Georgetown Airport
Date/Time
EST
Temp
°C
App
Temp
°C
Dew
Point
°C
Rel
Hum
%
Delta-T
°C
Wind Press
QNH
hPa
Press
MSL
hPa
Rain since
9am
mm
Dir  Spd
km/h
Gust
km/h
Spd
kts
Gust
kts
21/07:30pm 26.9 27.7 17.4 56 6.0 W 9 11 5 6 1007.2 1005.0 0.0
21/07:00pm 28.7 30.0 17.6 51 7.1 W 7 7 4 4 1006.9 1004.7 0.0
21/06:30pm 32.3 32.3 15.3 35 10.7 W 9 9 5 5 1006.5 1004.3 0.0
21/06:00pm 34.1 33.3 13.0 28 12.9 WSW 9 13 5 7 1006.5 1004.3 0.0
21/05:30pm 35.1 34.0 12.1 25 13.9 WSW 9 13 5 7 1006.5 1004.3 0.0
21/05:00pm 35.2 32.1 10.3 22 14.7 WSW 17 22 9 12 1006.4 1004.2 0.0
21/04:30pm 35.6 32.4 11.3 23 14.5 WSW 19 30 10 16 1006.2 1004.0 0.0
21/04:00pm 35.7 33.3 12.6 25 14.1 WSW 17 28 9 15 1006.4 1004.2 0.0
21/03:30pm 35.4 32.2 11.1 23 14.5 WSW 19 26 10 14 1006.6 1004.4 0.0
21/03:00pm 35.3 33.6 14.6 29 13.0 W 17 26 9 14 1006.9 1004.7 0.0
21/02:30pm 34.8 34.6 16.6 33 11.7 W 13 19 7 10 1007.2 1005.0 0.0
21/02:00pm 34.7 34.6 17.9 37 11.0 W 15 20 8 11 1007.9 1005.7 0.0
21/01:30pm 34.3 34.8 18.3 38 10.5 W 13 17 7 9 1008.6 1006.4 0.0
21/01:00pm 33.5 35.4 20.6 46 8.7 NW 11 19 6 10 1009.3 1007.1 0.0
21/12:30pm 32.9 35.9 22.0 52 7.5 W 9 17 5 9 1009.8 1007.6 0.0
21/12:00pm 32.7 34.8 20.9 49 8.0 WNW 11 15 6 8 1010.3 1008.1 0.0
21/11:30am 31.7 34.7 20.9 52 7.3 NNW 6 11 3 6 1010.7 1008.5 0.0
21/11:00am 31.0 34.6 22.3 60 6.0 WSW 7 11 4 6 1011.1 1008.9 0.0
21/10:30am 30.3 33.4 22.2 62 5.6 SSW 9 15 5 8 1011.3 1009.1 0.0
21/10:00am 29.4 32.6 23.1 69 4.4 WSW 11 19 6 10 1011.4 1009.2 0.0
21/09:30am 29.0 32.6 23.7 73 3.7 SW 11 15 6 8 1011.2 1009.0 0.0
21/09:00am 28.1 31.5 24.1 79 2.8 WSW 13 19 7 10 1011.3 1009.1 0.2
21/08:30am 27.3 30.8 24.2 83 2.2 WSW 13 19 7 10 1011.1 1008.9 0.2
21/08:00am 26.8 31.3 24.6 88 1.5 W 9 13 5 7 1011.1 1008.9 0.2
21/07:30am 26.1 32.8 25.4 96 0.5 CALM 0 6 0 3 1011.2 1009.0 0.2
21/07:00am 25.3 31.8 25.1 99 0.1 CALM 0 6 0 3 1011.1 1008.9 0.2
21/06:30am 24.7 30.8 24.5 99 0.1 CALM 0 0 0 0 1010.7 1008.5 0.2
21/06:24am 24.6 30.6 24.3 98 0.2 CALM 0 0 0 0 1010.7 1008.5 0.2
21/06:07am 24.7 30.8 24.4 98 0.2 CALM 0 0 0 0 1010.4 1008.2 0.2
21/06:00am 24.9 30.9 24.2 96 0.5 CALM 0 0 0 0 1010.3 1008.1 0.2
21/05:30am 25.0 31.1 24.5 97 0.3 CALM 0 0 0 0 1009.8 1007.6 0.2
21/05:00am 25.2 31.3 24.5 96 0.5 CALM 0 0 0 0 1009.5 1007.3 0.2
21/04:30am 25.6 30.5 24.7 95 0.6 W 7 9 4 5 1009.4 1007.2 0.2
21/04:00am 25.9 30.0 25.2 96 0.5 W 13 19 7 10 1009.4 1007.2 0.2
21/03:30am 25.2 31.6 24.9 98 0.2 CALM 0 0 0 0 1009.2 1007.0 0.2
21/03:00am 25.3 31.6 24.8 97 0.4 CALM 0 0 0 0 1009.1 1006.9 0.2
21/02:30am 25.8 32.1 24.8 94 0.7 CALM 0 0 0 0 1009.2 1007.0 0.2
21/02:00am 26.0 32.3 24.8 93 0.8 CALM 0 0 0 0 1009.4 1007.2 0.2
21/01:30am 26.4 33.0 25.2 93 0.8 CALM 0 0 0 0 1009.5 1007.3 0.2
21/01:00am 26.4 33.0 25.2 93 0.8 CALM 0 0 0 0 1009.7 1007.5 0.2
21/12:30am 26.4 33.1 25.4 94 0.7 CALM 0 0 0 0 1009.9 1007.7 0.2
21/12:00am 26.4 33.0 25.2 93 0.8 CALM 0 0 0 0 1010.0 1007.8 0.2
 
Date/Time
EST
Temp
°C
App
Temp
°C
Dew
Point
°C
Rel
Hum
%
Delta-T
°C
Wind Press
QNH
hPa
Press
MSL
hPa
Rain since
9am
mm
Dir  Spd
km/h
Gust
km/h
Spd
kts
Gust
kts
20/11:30pm 26.8 33.5 25.4 92 1.0 CALM 0 0 0 0 1009.9 1007.7 0.2
20/11:00pm 27.3 33.8 25.1 88 1.6 CALM 0 0 0 0 1010.0 1007.8 0.2
20/10:30pm 27.5 33.9 24.9 86 1.8 CALM 0 0 0 0 1009.9 1007.7 0.2
20/10:00pm 28.1 33.9 23.9 78 2.9 CALM 0 0 0 0 1009.7 1007.5 0.2
20/09:30pm 29.3 34.0 24.0 73 3.7 NW 6 7 3 4 1009.5 1007.3 0.2
20/09:00pm 29.3 33.8 24.0 73 3.7 NW 7 9 4 5 1009.3 1007.1 0.2
20/08:30pm 29.6 34.1 24.0 72 3.9 WNW 7 9 4 5 1009.1 1006.9 0.2
20/08:00pm 30.0 34.1 23.9 70 4.3 WNW 9 11 5 6 1008.8 1006.6 0.2
20/07:30pm 30.4 35.0 24.1 69 4.4 NW 7 11 4 6 1008.4 1006.2 0.2
20/07:00pm 31.2 35.8 24.1 66 5.0 NW 7 9 4 5 1008.3 1006.1 0.2
20/06:30pm 32.6 36.3 23.3 58 6.5 WNW 9 13 5 7 1008.1 1005.9 0.2
20/06:00pm 33.7 37.5 23.4 55 7.2 WNW 9 13 5 7 1008.1 1005.9 0.2
20/05:30pm 33.9 36.5 22.7 52 7.8 W 13 19 7 10 1007.8 1005.5 0.2
20/05:00pm 34.1 36.4 22.8 51 7.9 W 15 28 8 15 1007.9 1005.7 0.2
20/04:30pm 34.2 36.9 22.9 51 7.9 SW 13 17 7 9 1007.9 1005.7 0.2
20/04:00pm 33.8 35.8 22.9 53 7.6 WSW 17 24 9 13 1008.1 1005.9 0.2
20/03:30pm 34.0 36.3 22.7 51 7.9 WSW 15 20 8 11 1008.4 1006.2 0.2
20/03:00pm 33.6 36.0 23.0 54 7.4 W 15 24 8 13 1008.6 1006.4 0.2
20/02:30pm 33.4 35.5 23.1 54 7.2 WSW 17 26 9 14 1009.1 1006.9 0.2
20/02:00pm 32.9 36.0 24.1 60 6.2 WSW 15 24 8 13 1009.6 1007.4 0.2
20/01:30pm 32.3 35.1 24.3 62 5.7 WSW 17 26 9 14 1010.3 1008.1 0.2
20/01:00pm 31.8 33.9 23.1 60 6.1 WSW 17 26 9 14 1011.0 1008.8 0.2
20/12:30pm 32.1 34.8 24.2 63 5.6 WSW 17 20 9 11 1011.6 1009.4 0.2
20/12:00pm 30.8 32.4 22.9 62 5.5 W 19 24 10 13 1012.1 1009.9 0.2
20/11:30am 30.9 33.1 23.3 64 5.3 WSW 17 30 9 16 1012.7 1010.5 0.2
20/11:00am 30.2 32.9 23.4 67 4.7 WSW 15 24 8 13 1013.0 1010.8 0.2
20/10:30am 29.6 31.9 23.5 69 4.2 WSW 17 24 9 13 1013.3 1011.1 0.2
20/10:00am 28.8 30.4 22.8 70 4.1 WSW 19 28 10 15 1013.6 1011.4 0.0
20/09:30am 28.2 30.3 23.1 74 3.5 W 17 24 9 13 1013.5 1011.3 0.0
20/09:00am 27.4 29.8 23.6 80 2.6 W 17 22 9 12 1013.6 1011.4 15.0
20/08:30am 26.2 29.8 23.1 83 2.1 W 9 17 5 9 1013.5 1011.3 15.0
20/08:00am 25.0 30.4 23.2 90 1.2 CALM 0 4 0 2 1013.7 1011.5 15.0
20/07:30am 24.0 28.1 23.0 94 0.7 NNE 6 7 3 4 1013.2 1011.0 15.0
20/07:17am 23.8 28.0 23.1 96 0.5 N 6 9 3 5 1013.0 1010.8 15.0
20/07:00am 23.6 27.9 23.3 98 0.2 N 6 9 3 5 1012.9 1010.7 15.0
20/06:30am 23.3 28.6 23.1 99 0.1 CALM 0 0 0 0 1012.5 1010.3 15.0
20/06:13am 22.8 27.9 22.6 99 0.1 CALM 0 0 0 0 1012.1 1009.9 15.0
20/06:00am 23.0 28.2 22.8 99 0.1 CALM 0 0 0 0 1011.9 1009.7 15.0
20/05:30am 22.9 28.0 22.7 99 0.1 CALM 0 0 0 0 1011.6 1009.4 15.0
20/05:00am 22.8 27.9 22.6 99 0.1 CALM 0 0 0 0 1011.2 1009.0 15.0
20/04:30am 23.0 28.2 22.8 99 0.1 CALM 0 0 0 0 1010.9 1008.7 15.0
20/04:00am 22.8 27.8 22.5 98 0.2 CALM 0 0 0 0 1010.4 1008.2 15.0
20/03:30am 22.8 27.7 22.3 97 0.3 CALM 0 0 0 0 1010.2 1008.0 15.0
20/03:00am 22.9 27.7 22.2 96 0.5 CALM 0 0 0 0 1010.4 1008.2 15.0
20/02:30am 22.9 27.7 22.2 96 0.5 CALM 0 0 0 0 1010.6 1008.4 15.0
20/02:00am 22.9 27.7 22.1 95 0.5 CALM 0 0 0 0 1010.6 1008.4 15.0
20/01:30am 22.8 27.6 22.1 96 0.5 CALM 0 0 0 0 1011.0 1008.8 15.0
20/01:00am 23.0 26.6 22.0 94 0.7 ESE 6 7 3 4 1011.2 1009.0 15.0
20/12:30am 22.9 27.4 22.2 96 0.5 NNE 2 7 1 4 1011.3 1009.1 15.0
20/12:00am 22.7 27.4 22.0 96 0.5 CALM 0 0 0 0 1011.4 1009.2 15.0
 
Date/Time
EST
Temp
°C
App
Temp
°C
Dew
Point
°C
Rel
Hum
%
Delta-T
°C
Wind Press
QNH
hPa
Press
MSL
hPa
Rain since
9am
mm
Dir  Spd
km/h
Gust
km/h
Spd
kts
Gust
kts
19/11:30pm 22.4 26.9 21.6 95 0.5 CALM 0 0 0 0 1011.1 1008.9 14.8
19/11:00pm 22.2 26.5 21.2 94 0.7 CALM 0 0 0 0 1010.6 1008.4 14.8
19/10:30pm 21.9 24.3 20.9 94 0.7 SSE 9 13 5 7 1010.2 1008.0 14.8
19/10:00pm 21.7 23.7 19.1 85 1.7 SW 7 11 4 6 1010.7 1008.5 14.8
19/09:56pm 21.3 22.8 18.9 86 1.5 WSW 9 20 5 11 1010.7 1008.5 14.8
19/09:39pm 22.2 18.7 18.0 77 2.6 WSW 33 54 18 29 1010.9 1008.7 14.0
19/09:30pm 21.8 18.6 19.5 87 1.5 S 35 59 19 32 1012.9 1010.7 8.0
19/09:22pm 22.7 19.2 17.4 72 3.3 SSE 32 54 17 29 1011.4 1009.2 1.4
19/09:19pm 23.0 20.9 18.1 74 3.1 SSE 26 54 14 29 1011.4 1009.2 0.6
19/09:18pm 24.0 22.3 18.2 70 3.7 SSE 24 54 13 29 1011.3 1009.1 0.4
19/09:00pm 29.3 32.0 21.3 62 5.4 ESE 9 13 5 7 1010.5 1008.3 0.0
19/08:30pm 29.4 33.9 24.0 72 3.8 ENE 7 13 4 7 1010.2 1008.0 0.0
19/08:00pm 29.4 35.1 23.8 72 3.9 CALM 0 0 0 0 1009.8 1007.6 0.0
19/07:30pm 29.9 33.9 23.1 67 4.7 WNW 7 9 4 5 1009.2 1007.0 0.0
19/07:00pm 30.7 34.5 22.8 62 5.5 WNW 7 11 4 6 1008.7 1006.5 0.0
19/06:30pm 32.0 34.5 22.4 57 6.6 W 13 19 7 10 1008.3 1006.1 0.0
19/06:00pm 32.8 35.0 22.6 55 7.1 W 15 20 8 11 1008.0 1005.8 0.0
19/05:30pm 32.9 34.0 22.0 52 7.5 W 19 26 10 14 1008.0 1005.8 0.0
19/05:00pm 33.6 36.5 24.5 59 6.5 W 17 28 9 15 1008.2 1006.0 0.0
19/04:30pm 33.5 35.8 23.5 55 7.0 W 17 24 9 13 1008.2 1006.0 0.0
19/04:00pm 33.0 35.2 23.3 56 6.8 W 17 24 9 13 1008.3 1006.1 0.0
19/03:30pm 32.9 35.8 23.8 58 6.4 WNW 15 24 8 13 1008.6 1006.4 0.0
19/03:00pm 32.7 35.8 24.2 61 6.0 WSW 15 20 8 11 1009.1 1006.9 0.0
19/02:30pm 31.6 34.4 23.7 63 5.5 W 15 20 8 11 1009.5 1007.3 0.0
19/02:00pm 31.6 34.3 23.4 61 5.7 W 15 22 8 12 1009.8 1007.6 0.0
19/01:30pm 30.9 34.0 22.8 62 5.6 WNW 11 19 6 10 1010.3 1008.1 0.0
19/01:00pm 30.5 33.0 23.2 65 5.1 WSW 15 20 8 11 1011.1 1008.9 0.0
19/12:30pm 30.6 33.1 23.8 67 4.8 W 17 22 9 12 1011.7 1009.5 0.0
19/12:00pm 30.4 33.1 24.1 69 4.4 WSW 17 26 9 14 1012.2 1010.0 0.0
19/11:30am 29.2 31.7 23.2 70 4.2 WSW 15 24 8 13 1012.4 1010.2 0.0
19/11:00am 29.2 31.8 23.9 73 3.7 WSW 17 22 9 12 1012.8 1010.6 0.0
19/10:30am 28.2 30.2 22.9 73 3.6 W 17 26 9 14 1013.0 1010.8 0.0
19/10:00am 28.4 31.0 23.3 74 3.5 W 15 20 8 11 1013.2 1011.0 0.0
19/09:30am 27.9 31.0 23.5 77 3.0 W 13 19 7 10 1013.3 1011.1 0.0
19/09:00am 27.1 29.5 22.9 78 2.9 W 15 20 8 11 1013.2 1011.0 0.0
19/08:30am 26.3 28.7 22.2 78 2.8 W 13 22 7 12 1013.1 1010.9 0.0
19/08:00am 25.5 28.7 21.6 79 2.6 W 7 11 4 6 1012.8 1010.6 0.0
19/07:30am 24.5 28.2 22.2 87 1.6 WSW 6 9 3 5 1012.6 1010.4 0.0
19/07:00am 23.8 28.9 22.6 93 0.8 CALM 0 0 0 0 1012.2 1010.0 0.0
19/06:30am 23.6 28.2 21.7 89 1.3 CALM 0 0 0 0 1011.7 1009.5 0.0
19/06:00am 23.9 27.3 21.6 87 1.5 N 6 7 3 4 1011.5 1009.3 0.0
19/05:30am 24.2 27.5 21.9 87 1.5 N 7 11 4 6 1011.3 1009.1 0.0
19/05:00am 24.5 28.1 22.4 88 1.4 N 7 9 4 5 1011.2 1009.0 0.0
19/04:30am 24.8 28.7 22.5 87 1.6 N 6 7 3 4 1011.0 1008.8 0.0
19/04:00am 25.1 28.7 22.4 85 1.8 N 7 9 4 5 1011.0 1008.8 0.0
19/03:30am 25.3 28.7 22.0 82 2.2 N 7 9 4 5 1010.9 1008.7 0.0
19/03:00am 25.5 29.2 22.2 82 2.2 NNW 6 9 3 5 1010.5 1008.3 0.0
19/02:30am 25.7 29.3 22.0 80 2.5 N 6 7 3 4 1010.7 1008.5 0.0
19/02:00am 25.8 29.7 21.9 79 2.6 N 4 7 2 4 1011.0 1008.8 0.0
19/01:30am 25.8 29.0 21.7 78 2.8 N 7 9 4 5 1011.1 1008.9 0.0
19/01:00am 25.6 28.8 21.7 79 2.6 N 7 11 4 6 1011.2 1009.0 0.0
19/12:30am 25.0 28.2 21.7 82 2.2 NNE 7 9 4 5 1011.6 1009.4 0.0
19/12:00am 25.0 26.9 21.3 80 2.5 ESE 13 19 7 10 1011.8 1009.6 0.0
 
Date/Time
EST
Temp
°C
App
Temp
°C
Dew
Point
°C
Rel
Hum
%
Delta-T
°C
Wind Press
QNH
hPa
Press
MSL
hPa
Rain since
9am
mm
Dir  Spd
km/h
Gust
km/h
Spd
kts
Gust
kts
18/11:30pm 25.6 30.1 21.5 78 2.8 CALM 0 0 0 0 1011.5 1009.3 0.0
18/11:00pm 25.9 29.8 21.8 78 2.8 NNE 4 7 2 4 1011.6 1009.4 0.0
18/10:30pm 26.3 29.5 21.7 76 3.1 NE 7 13 4 7 1011.8 1009.6 0.0
18/10:00pm 26.3 30.6 21.9 77 3.0 E 2 7 1 4 1011.7 1009.5 0.0
18/09:30pm 26.3 29.9 21.3 74 3.4 ENE 4 11 2 6 1011.3 1009.1 0.0
18/09:00pm 26.9 29.8 21.0 70 3.9 ENE 7 11 4 6 1011.4 1009.2 0.0
18/08:30pm 27.5 29.9 21.5 70 4.0 E 11 17 6 9 1010.9 1008.7 0.0
18/08:00pm 29.3 32.4 22.8 68 4.5 W 11 15 6 8 1010.7 1008.5 0.0

Other formats

Comma delimited format used in spreadsheet applications
http://www.bom.gov.au/fwo/IDQ60801/IDQ60801.94274.axf

JavaScript Object Notation format (JSON) in row-major order
http://www.bom.gov.au/fwo/IDQ60801/IDQ60801.94274.json

Data quality

Most of these data are generated automatically and are frequently updated. Quality checks on data are not normally performed. It is possible for incorrect values to appear. Refer to information at About Latest Weather Observations and please check the disclaimer before using these data.